Drummond Island, MI

6:18 AM EDT on April 02, 2015 (GMT -0400)
Presque Isle County | | Change Station
CLOSE
Current Station
Airport
Location: Rogers City,
Elevation: 669 ft
Nearby Weather Stations

Elev 669 ft 45.41 °N, 83.81 °W | Updated 4 minutes ago

Clear
Clear
52 °F
Feels Like 52 °F
N
16
Wind Variable Wind from SSW

Today
High -- | Low -- °F
--% Chance of Precip.
Yesterday
High -- | Low -- °F
Precip. -- in
7:13 AM 8:04 PM
Waxing Gibbous, 96% visible
Pressure 29.65 in
Visibility 10.0 miles
Clouds Clear
Dew Point 38 °F
Humidity 58%
Rainfall 0.00 in
Snow Depth Not available.
UV 0 out of 12
Pollen 3.30 out of 12
Air Quality Not available.
Flu Activity Not available.
METAR KPZQ 021014Z AUTO 20014KT 10SM CLR 11/03 A2965 RMK AO2 T01120032

More Conditions Fewer Conditions

Pressure 29.65 in
Visibility 10.0 miles
Clouds Clear
Dew Point 38 °F
Humidity 58%
Rainfall 0.00 in
Snow Depth Not available.
UV 0 out of 12
Pollen 3.30 out of 12
Air Quality Not available.
Flu Activity Not available.
METAR KPZQ 021014Z AUTO 20014KT 10SM CLR 11/03 A2965 RMK AO2 T01120032

More Conditions Fewer Conditions

Nowcast | as of 6:00 am EDT on April 2, 2015

At 7 am...mostly cloudy. Chance of showers. Temperature 41. Southeast winds 9 mph with gusts to 20 mph. At 9 am...cloudy. Temperature 42. South winds 5 mph. At 11 am...periods of rain. Temperature 42. West winds 8 mph. At 1 PM...periods of rain. Temperature 46. West winds 11 mph.

×

10-Day Weather Forecast

Almanac

Astronomy

Apr. 02, 2015 Rise Set
Actual Time
Civil Twilight
Nautical Twilight
Astronomical Twilight
Moon
Length of Visible Light
Length of Day
Tomorrow will be .
, % of the Moon is Illuminated

Today's Extremes

State Highs State Lows

Community

WunderPhotos

Upload Photos

1,810,216 photos uploaded!

WunderBlogs® & News

Nearby

Air Quality

  Air Quality AQ Index Pollutant
Not available.

Snow Depth

Station Depth Elevation

Earthquake Activity

City Distance Mag. Time & Date
Minimum magnitude displayed is 2.5.

Coastal Water Temperatures

Place Temperature

Stations

Nearby Weather Stations

Station Location Temp. Windchill Dew Point Humidity Wind Precip. Elev Updated Type